createdAt,value
2022-12-23T00:01:36.941Z,99340.10
2022-12-23T00:05:44.708Z,99342.31
2022-12-23T00:09:52.549Z,99339.52
2022-12-23T00:14:21.531Z,99336.83
2022-12-23T00:18:29.804Z,99334.59
2022-12-23T00:22:54.948Z,99335.20
2022-12-23T00:27:06.622Z,99336.70
2022-12-23T00:31:14.849Z,99338.30
2022-12-23T00:35:22.509Z,99334.09
2022-12-23T00:39:50.771Z,99335.14
2022-12-23T00:44:02.789Z,99333.79
2022-12-23T00:48:28.390Z,99338.23
2022-12-23T00:52:36.566Z,99334.59
2022-12-23T00:56:44.089Z,99325.41
2022-12-23T01:01:09.603Z,99321.70
2022-12-23T01:05:35.575Z,99314.45
2022-12-23T01:09:46.384Z,99309.77
2022-12-23T01:13:54.826Z,99302.70
2022-12-23T01:18:02.690Z,99291.20
2022-12-23T01:22:10.326Z,99292.02
2022-12-23T01:26:19.932Z,99301.90
2022-12-23T01:30:28.198Z,99304.80
2022-12-23T01:34:37.502Z,99296.38
2022-12-23T01:38:45.556Z,99282.59
2022-12-23T01:42:53.916Z,99272.57
2022-12-23T01:47:01.850Z,99270.09
2022-12-23T01:51:12.653Z,99267.97
2022-12-23T01:55:24.514Z,99265.88
2022-12-23T01:59:50.508Z,99258.36
2022-12-23T02:04:01.244Z,99242.73
2022-12-23T02:08:27.926Z,99239.70
2022-12-23T02:12:53.855Z,99236.20
2022-12-23T02:17:09.269Z,99239.18
2022-12-23T02:21:33.561Z,99241.02
2022-12-23T02:26:02.262Z,99239.23
2022-12-23T02:30:30.242Z,99238.96
2022-12-23T02:34:42.300Z,99238.59
2022-12-23T02:38:55.862Z,99230.82
2022-12-23T02:43:08.693Z,99233.42
2022-12-23T02:47:21.607Z,99234.52
2022-12-23T02:51:32.623Z,99238.95
2022-12-23T02:55:43.581Z,99235.45
2022-12-23T02:59:53.329Z,99232.37
2022-12-23T03:04:01.229Z,99229.74
2022-12-23T03:08:19.228Z,99228.80
2022-12-23T03:12:37.221Z,99231.55
2022-12-23T03:16:53.244Z,99228.14
2022-12-23T03:21:08.006Z,99222.41
2022-12-23T03:25:22.086Z,99213.08
2022-12-23T03:29:36.473Z,99217.19
2022-12-23T03:33:46.774Z,99218.59
2022-12-23T03:37:56.565Z,99219.88
2022-12-23T03:42:09.619Z,99209.27
2022-12-23T03:46:21.637Z,99205.43
2022-12-23T03:50:30.922Z,99208.14
2022-12-23T03:54:42.369Z,99202.57
2022-12-23T03:58:57.395Z,99198.02
2022-12-23T04:03:12.429Z,99203.34
2022-12-23T04:07:23.161Z,99201.23
2022-12-23T04:11:31.726Z,99200.58
2022-12-23T04:15:42.469Z,99201.44
2022-12-23T04:19:50.961Z,99200.70
2022-12-23T04:23:58.664Z,99188.58
2022-12-23T04:28:06.655Z,99189.03
2022-12-23T04:32:14.373Z,99184.45
2022-12-23T04:36:22.018Z,99179.34
2022-12-23T04:40:29.568Z,99174.25
2022-12-23T04:44:37.249Z,99173.64
2022-12-23T04:48:44.854Z,99172.68
2022-12-23T04:52:52.461Z,99168.36
2022-12-23T04:57:00.276Z,99164.63
2022-12-23T05:01:10.578Z,99158.23
2022-12-23T05:05:19.052Z,99153.42
2022-12-23T05:09:26.653Z,99148.69
2022-12-23T05:13:34.603Z,99143.23
2022-12-23T05:17:42.068Z,99146.63
2022-12-23T05:21:49.917Z,99146.27
2022-12-23T05:25:57.632Z,99144.70
2022-12-23T05:30:06.973Z,99148.58
2022-12-23T05:34:14.705Z,99147.00
2022-12-23T05:38:23.181Z,99149.35
2022-12-23T05:42:30.333Z,99149.15
2022-12-23T05:46:39.245Z,99152.19
2022-12-23T05:50:47.165Z,99148.57
2022-12-23T05:54:54.974Z,99151.23
2022-12-23T05:59:03.188Z,99153.52
2022-12-23T06:03:12.113Z,99152.17
2022-12-23T06:07:19.790Z,99154.25
2022-12-23T06:11:27.280Z,99158.80
2022-12-23T06:15:35.312Z,99160.52
2022-12-23T06:19:45.394Z,99158.70
2022-12-23T06:23:53.059Z,99158.23
2022-12-23T06:28:00.796Z,99156.91
2022-12-23T06:32:09.264Z,99152.25
2022-12-23T06:36:17.305Z,99149.30
2022-12-23T06:40:24.934Z,99153.42
2022-12-23T06:44:32.626Z,99161.70
2022-12-23T06:48:40.189Z,99161.54
2022-12-23T06:52:49.252Z,99166.23
2022-12-23T06:56:56.605Z,99161.20
2022-12-23T07:01:07.354Z,99161.16
2022-12-23T07:05:39.454Z,99161.67
2022-12-23T07:09:47.580Z,99158.30
2022-12-23T07:13:55.744Z,99153.84
2022-12-23T07:18:04.652Z,99154.09
2022-12-23T07:22:12.886Z,99153.73
2022-12-23T07:26:20.962Z,99154.36
2022-12-23T07:30:29.360Z,99155.39
2022-12-23T07:34:37.824Z,99158.77
2022-12-23T07:38:46.034Z,99158.52
2022-12-23T07:42:58.207Z,99155.58
2022-12-23T07:47:06.458Z,99156.20
2022-12-23T07:51:14.589Z,99153.79
2022-12-23T07:55:22.284Z,99158.48
2022-12-23T07:59:31.377Z,99156.13
2022-12-23T08:03:40.215Z,99157.01
2022-12-23T08:07:50.450Z,99159.19
2022-12-23T08:11:57.823Z,99165.27
2022-12-23T08:16:07.049Z,99161.34
2022-12-23T08:20:15.526Z,99152.89
2022-12-23T08:24:22.893Z,99153.89
2022-12-23T08:28:31.642Z,99151.73
2022-12-23T08:32:42.127Z,99151.36
2022-12-23T08:36:49.806Z,99150.71
2022-12-23T08:40:58.096Z,99146.42
2022-12-23T08:45:30.631Z,99149.91
2022-12-23T08:49:39.420Z,99149.99
2022-12-23T08:53:47.451Z,99145.02
2022-12-23T08:57:55.500Z,99147.02
2022-12-23T09:02:03.543Z,99148.02
2022-12-23T09:06:14.641Z,99139.27
2022-12-23T09:10:48.123Z,99141.92
2022-12-23T09:14:56.823Z,99143.81
2022-12-23T09:19:04.580Z,99155.17
2022-12-23T09:23:12.504Z,99158.55
2022-12-23T09:27:21.348Z,99156.58
2022-12-23T09:31:36.238Z,99151.29
2022-12-23T09:35:45.187Z,99145.88
2022-12-23T09:39:52.984Z,99144.35
2022-12-23T09:44:13.554Z,99148.76
2022-12-23T09:48:27.164Z,99145.88
2022-12-23T09:52:44.405Z,99143.84
2022-12-23T09:56:56.211Z,99139.59
2022-12-23T10:01:15.680Z,99147.11
2022-12-23T10:05:31.641Z,99142.80
2022-12-23T10:09:41.051Z,99147.88
2022-12-23T10:13:52.460Z,99153.19
2022-12-23T10:18:04.320Z,99151.02
2022-12-23T10:22:18.294Z,99149.84
2022-12-23T10:26:30.700Z,99156.51
2022-12-23T10:31:05.785Z,99152.13
2022-12-23T10:35:17.563Z,99157.09
2022-12-23T10:39:29.958Z,99153.57
2022-12-23T10:43:47.019Z,99155.91
2022-12-23T10:48:13.681Z,99157.39
2022-12-23T10:52:24.089Z,99152.85
2022-12-23T10:56:39.644Z,99159.09
2022-12-23T11:00:57.719Z,99154.23
2022-12-23T11:05:09.836Z,99152.34
2022-12-23T11:09:21.207Z,99152.53
2022-12-23T11:13:38.160Z,99154.60
2022-12-23T11:18:01.622Z,99152.14
2022-12-23T11:22:10.854Z,99158.22
2022-12-23T11:26:23.184Z,99159.02
2022-12-23T11:30:36.637Z,99159.90
2022-12-23T11:34:47.952Z,99162.50
2022-12-23T11:39:00.658Z,99157.63
2022-12-23T11:43:13.358Z,99151.92
2022-12-23T11:47:30.863Z,99149.55
2022-12-23T11:51:39.201Z,99148.73
2022-12-23T11:55:57.911Z,99143.33
2022-12-23T12:00:33.552Z,99141.61
2022-12-23T12:04:41.973Z,99142.61
2022-12-23T12:08:51.942Z,99145.45
2022-12-23T12:13:04.787Z,99143.47
2022-12-23T12:17:17.949Z,99141.92
2022-12-23T12:21:30.720Z,99137.27
2022-12-23T12:25:43.297Z,99140.92
2022-12-23T12:29:56.016Z,99147.52
2022-12-23T12:34:12.107Z,99153.36
2022-12-23T12:38:26.567Z,99161.65
2022-12-23T12:42:39.727Z,99173.30
2022-12-23T12:46:51.604Z,99175.50
2022-12-23T12:51:05.959Z,99177.75
2022-12-23T12:55:21.475Z,99184.85
2022-12-23T12:59:31.196Z,99186.19
2022-12-23T13:03:58.517Z,99193.52
2022-12-23T13:08:19.191Z,99204.42
2022-12-23T13:12:36.863Z,99210.00
2022-12-23T13:16:50.529Z,99217.23
2022-12-23T13:21:03.510Z,99220.92
2022-12-23T13:25:35.398Z,99223.26
2022-12-23T13:29:58.766Z,99231.30
2022-12-23T13:34:14.971Z,99229.35
2022-12-23T13:38:36.070Z,99231.80
2022-12-23T13:42:48.014Z,99230.90
2022-12-23T13:47:04.303Z,99220.13
2022-12-23T13:51:16.948Z,99216.88
2022-12-23T13:55:38.912Z,99220.35
2022-12-23T14:00:04.852Z,99215.93
2022-12-23T14:04:47.660Z,99202.08
2022-12-23T14:08:57.057Z,99204.66
2022-12-23T14:13:07.336Z,99208.23
2022-12-23T14:17:19.937Z,99214.27
2022-12-23T14:21:37.475Z,99216.79
2022-12-23T14:26:18.970Z,99217.26
2022-12-23T14:30:36.231Z,99221.05
2022-12-23T14:35:07.501Z,99222.65
2022-12-23T14:39:33.940Z,99226.27
2022-12-23T14:44:02.970Z,99220.22
2022-12-23T14:48:44.635Z,99218.33
2022-12-23T14:53:07.035Z,99217.97
2022-12-23T14:57:21.752Z,99215.91
2022-12-23T15:01:35.074Z,99222.43
2022-12-23T15:05:44.866Z,99231.75
2022-12-23T15:10:00.664Z,99231.91
2022-12-23T15:14:12.251Z,99236.98
2022-12-23T15:18:20.045Z,99239.59
2022-12-23T15:22:34.092Z,99237.11
2022-12-23T15:26:57.585Z,99231.03
2022-12-23T15:31:29.352Z,99225.46
2022-12-23T15:35:39.950Z,99224.61
2022-12-23T15:39:52.701Z,99228.45
2022-12-23T15:44:06.083Z,99228.15
2022-12-23T15:48:29.695Z,99227.80
2022-12-23T15:52:37.448Z,99223.10
2022-12-23T15:56:50.304Z,99217.95
2022-12-23T16:01:00.190Z,99220.92
2022-12-23T16:05:10.580Z,99226.48
2022-12-23T16:09:32.618Z,99234.55
2022-12-23T16:13:47.363Z,99239.52
2022-12-23T16:18:14.692Z,99234.31
2022-12-23T16:22:28.613Z,99231.60
2022-12-23T16:26:45.025Z,99232.33
2022-12-23T16:30:57.069Z,99233.70
2022-12-23T16:35:13.703Z,99225.96
2022-12-23T16:39:27.264Z,99223.55
2022-12-23T16:43:35.009Z,99218.78
2022-12-23T16:47:45.298Z,99218.27
2022-12-23T16:51:54.073Z,99219.53
2022-12-23T16:56:01.972Z,99232.79
2022-12-23T17:00:12.539Z,99235.67
2022-12-23T17:04:21.486Z,99234.59
2022-12-23T17:08:29.489Z,99235.92
2022-12-23T17:12:38.012Z,99236.60
2022-12-23T17:16:46.175Z,99240.85
2022-12-23T17:20:54.476Z,99240.95
2022-12-23T17:25:02.083Z,99239.40
2022-12-23T17:29:13.350Z,99236.86
2022-12-23T17:33:21.618Z,99234.63
2022-12-23T17:37:32.028Z,99233.29
2022-12-23T17:41:41.882Z,99228.28
2022-12-23T17:45:51.091Z,99228.70
2022-12-23T17:49:59.107Z,99232.17
2022-12-23T17:54:08.806Z,99244.02
2022-12-23T17:58:16.869Z,99241.18
2022-12-23T18:02:30.787Z,99227.60
2022-12-23T18:06:39.107Z,99228.66
2022-12-23T18:10:47.229Z,99232.08
2022-12-23T18:14:55.984Z,99238.84
2022-12-23T18:19:04.793Z,99235.52
2022-12-23T18:23:16.168Z,99238.19
2022-12-23T18:27:27.132Z,99234.87
2022-12-23T18:31:37.309Z,99232.91
2022-12-23T18:35:48.535Z,99232.36
2022-12-23T18:39:56.346Z,99230.48
2022-12-23T18:44:04.572Z,99227.96
2022-12-23T18:48:12.322Z,99217.73
2022-12-23T18:52:23.194Z,99206.74
2022-12-23T18:56:30.935Z,99200.62
2022-12-23T19:09:53.147Z,99188.35
2022-12-23T19:14:00.902Z,99185.44
2022-12-23T19:18:10.079Z,99172.34
2022-12-23T19:22:20.885Z,99161.35
2022-12-23T19:26:29.198Z,99153.83
2022-12-23T19:30:37.251Z,99152.27
2022-12-23T19:34:45.463Z,99151.05
2022-12-23T19:38:53.637Z,99155.61
2022-12-23T19:43:01.675Z,99165.05
2022-12-23T19:47:09.438Z,99155.82
2022-12-23T19:51:18.827Z,99154.24
2022-12-23T19:55:32.007Z,99146.16
2022-12-23T19:59:46.709Z,99143.16
2022-12-23T20:03:56.533Z,99141.35
2022-12-23T20:08:06.175Z,99148.55
2022-12-23T20:12:14.279Z,99146.42
2022-12-23T20:16:24.520Z,99139.89
2022-12-23T20:20:38.469Z,99136.73
2022-12-23T20:24:47.199Z,99136.17
2022-12-23T20:28:55.114Z,99142.28
2022-12-23T20:33:04.009Z,99143.61
2022-12-23T20:37:13.321Z,99138.86
2022-12-23T20:41:23.439Z,99134.23
2022-12-23T20:45:30.829Z,99138.98
2022-12-23T20:49:38.774Z,99142.37
2022-12-23T20:53:46.797Z,99145.96
2022-12-23T20:57:54.960Z,99144.45
2022-12-23T21:02:02.918Z,99147.35
2022-12-23T21:06:13.197Z,99149.90
2022-12-23T21:10:21.801Z,99148.94
2022-12-23T21:14:29.688Z,99133.77
2022-12-23T21:18:40.714Z,99130.57
2022-12-23T21:22:52.365Z,99136.30
2022-12-23T21:27:00.218Z,99128.55
2022-12-23T21:31:09.045Z,99131.16
2022-12-23T21:35:17.125Z,99123.52
2022-12-23T21:39:25.929Z,99120.85
2022-12-23T21:43:33.735Z,99117.80
2022-12-23T21:47:43.592Z,99110.20
2022-12-23T21:51:51.180Z,99105.60
2022-12-23T21:56:03.798Z,99097.34
2022-12-23T22:00:13.338Z,99090.38
2022-12-23T22:04:22.831Z,99084.80
2022-12-23T22:08:30.447Z,99078.85
2022-12-23T22:12:38.678Z,99077.20
2022-12-23T22:16:46.377Z,99066.23
2022-12-23T22:20:54.499Z,99064.25
2022-12-23T22:25:02.530Z,99064.73
2022-12-23T22:29:14.653Z,99056.38
2022-12-23T22:33:22.709Z,99048.58
2022-12-23T22:37:31.143Z,99044.70
2022-12-23T22:41:39.764Z,99037.80
2022-12-23T22:45:48.662Z,99027.34
2022-12-23T22:49:56.570Z,99019.03
2022-12-23T22:54:04.869Z,99012.98
2022-12-23T22:58:12.658Z,99011.85
2022-12-23T23:02:20.948Z,99012.67
2022-12-23T23:06:29.996Z,99006.77
2022-12-23T23:10:37.968Z,98995.21
2022-12-23T23:14:56.518Z,98981.98
2022-12-23T23:19:04.584Z,98988.85
2022-12-23T23:23:13.578Z,98993.40
2022-12-23T23:27:22.490Z,98988.12
2022-12-23T23:31:46.181Z,98983.79
2022-12-23T23:35:58.652Z,98998.61
2022-12-23T23:40:08.163Z,99001.48
2022-12-23T23:44:16.841Z,98994.19
2022-12-23T23:48:25.649Z,98987.48
2022-12-23T23:52:34.024Z,98984.91
2022-12-23T23:56:41.997Z,98987.50
